createdAt,value
2019-03-26T00:01:10.129Z,64.80
2019-03-26T00:03:38.542Z,65.00
2019-03-26T00:06:09.690Z,64.80
2019-03-26T00:08:38.182Z,65.00
2019-03-26T00:11:06.654Z,64.80
2019-03-26T00:13:35.098Z,65.00
2019-03-26T00:16:03.587Z,65.20
2019-03-26T00:18:32.037Z,65.20
2019-03-26T00:21:00.474Z,65.50
2019-03-26T00:23:28.938Z,65.40
2019-03-26T00:28:22.390Z,65.60
2019-03-26T00:30:50.935Z,65.40
2019-03-26T00:33:19.570Z,65.40
2019-03-26T00:35:47.992Z,65.60
2019-03-26T00:38:16.610Z,65.50
2019-03-26T00:40:45.131Z,65.70
2019-03-26T00:43:13.645Z,65.50
2019-03-26T00:45:42.114Z,65.70
2019-03-26T00:48:10.538Z,65.70
2019-03-26T00:50:38.987Z,65.50
2019-03-26T00:53:10.102Z,65.90
2019-03-26T00:55:38.529Z,65.70
2019-03-26T00:58:07.018Z,65.10
2019-03-26T01:00:38.042Z,65.00
2019-03-26T01:03:06.673Z,65.00
2019-03-26T01:05:35.169Z,64.70
2019-03-26T01:08:03.669Z,64.90
2019-03-26T01:10:32.113Z,65.20
2019-03-26T01:13:00.629Z,65.40
2019-03-26T01:15:29.054Z,65.80
2019-03-26T01:17:57.493Z,66.40
2019-03-26T01:20:25.926Z,66.40
2019-03-26T01:22:54.382Z,66.60
2019-03-26T01:25:22.915Z,66.80
2019-03-26T01:27:52.936Z,66.60
2019-03-26T01:30:21.385Z,66.70
2019-03-26T01:32:49.938Z,67.10
2019-03-26T01:35:18.379Z,67.10
2019-03-26T01:37:46.812Z,66.30
2019-03-26T01:40:15.217Z,66.30
2019-03-26T01:42:43.670Z,66.10
2019-03-26T01:45:12.109Z,66.10
2019-03-26T01:47:40.535Z,66.30
2019-03-26T01:50:09.102Z,66.80
2019-03-26T01:52:37.538Z,67.10
2019-03-26T01:55:06.828Z,67.50
2019-03-26T01:57:35.245Z,67.80
2019-03-26T02:00:05.844Z,67.70
2019-03-26T02:02:34.262Z,67.60
2019-03-26T02:05:02.930Z,68.00
2019-03-26T02:07:31.341Z,68.00
2019-03-26T02:09:59.767Z,67.80
2019-03-26T02:12:28.311Z,68.10
2019-03-26T02:14:56.735Z,68.30
2019-03-26T02:17:25.166Z,68.80
2019-03-26T02:19:53.612Z,69.70
2019-03-26T02:22:22.043Z,69.80
2019-03-26T02:24:50.545Z,69.90
2019-03-26T02:27:18.974Z,70.10
2019-03-26T02:29:47.417Z,70.20
2019-03-26T02:32:15.868Z,70.30
2019-03-26T02:34:44.299Z,70.60
2019-03-26T02:37:12.719Z,70.70
2019-03-26T02:39:41.159Z,71.10
2019-03-26T02:44:52.109Z,71.20
2019-03-26T02:47:20.792Z,71.10
2019-03-26T02:49:49.234Z,70.70
2019-03-26T02:52:17.715Z,70.20
2019-03-26T02:54:46.183Z,70.30
2019-03-26T02:57:14.676Z,70.80
2019-03-26T02:59:43.117Z,71.10
2019-03-26T03:02:11.547Z,71.20
2019-03-26T03:04:39.952Z,71.20
2019-03-26T03:07:08.416Z,71.30
2019-03-26T03:09:36.850Z,71.40
2019-03-26T03:12:05.378Z,71.60
2019-03-26T03:14:33.979Z,71.70
2019-03-26T03:17:02.416Z,72.20
2019-03-26T03:19:30.924Z,72.50
2019-03-26T03:21:59.360Z,72.50
2019-03-26T03:24:27.879Z,72.80
2019-03-26T03:26:56.311Z,72.80
2019-03-26T03:29:24.768Z,72.90
2019-03-26T03:31:53.266Z,73.30
2019-03-26T03:34:21.700Z,73.30
2019-03-26T03:36:50.147Z,73.30
2019-03-26T03:39:18.578Z,73.20
2019-03-26T03:41:47.015Z,73.30
2019-03-26T03:44:15.430Z,73.20
2019-03-26T03:46:46.844Z,73.10
2019-03-26T03:49:17.089Z,73.30
2019-03-26T03:51:47.942Z,73.40
2019-03-26T03:54:17.625Z,73.50
2019-03-26T03:56:48.355Z,73.70
2019-03-26T03:59:17.243Z,74.20
2019-03-26T04:01:46.167Z,74.00
2019-03-26T04:04:14.660Z,74.30
2019-03-26T04:06:43.230Z,74.40
2019-03-26T04:09:11.647Z,74.50
2019-03-26T04:11:40.119Z,74.80
2019-03-26T04:14:08.586Z,75.00
2019-03-26T04:16:37.061Z,75.20
2019-03-26T04:19:05.545Z,75.00
2019-03-26T04:21:33.973Z,74.80
2019-03-26T04:24:02.397Z,75.10
2019-03-26T04:26:30.867Z,75.40
2019-03-26T04:28:59.319Z,75.40
2019-03-26T04:31:27.751Z,75.60
2019-03-26T04:33:56.242Z,75.60
2019-03-26T04:36:46.155Z,75.70
2019-03-26T04:39:14.827Z,75.80
2019-03-26T04:41:43.262Z,76.00
2019-03-26T04:44:11.746Z,76.10
2019-03-26T04:46:40.192Z,75.90
2019-03-26T04:49:08.632Z,75.80
2019-03-26T04:51:37.074Z,75.70
2019-03-26T04:54:05.513Z,75.90
2019-03-26T04:56:34.140Z,75.90
2019-03-26T04:59:02.666Z,75.70
2019-03-26T05:01:31.078Z,75.70
2019-03-26T05:03:59.501Z,75.90
2019-03-26T05:06:37.483Z,75.40
2019-03-26T05:08:58.108Z,75.40
2019-03-26T05:11:26.815Z,75.40
2019-03-26T05:13:55.283Z,75.30
2019-03-26T05:16:23.725Z,75.50
2019-03-26T05:18:52.154Z,75.50
2019-03-26T05:21:20.626Z,75.50
2019-03-26T05:23:51.794Z,75.70
2019-03-26T05:26:19.321Z,75.80
2019-03-26T05:28:47.730Z,76.00
2019-03-26T05:31:16.183Z,76.10
2019-03-26T05:33:45.034Z,76.00
2019-03-26T05:36:13.443Z,76.00
2019-03-26T05:38:42.098Z,75.90
2019-03-26T05:41:10.792Z,75.80
2019-03-26T05:43:39.394Z,75.70
2019-03-26T05:46:07.851Z,75.40
2019-03-26T05:48:36.362Z,75.20
2019-03-26T05:51:04.798Z,74.70
2019-03-26T05:53:33.235Z,74.60
2019-03-26T05:56:01.677Z,74.40
2019-03-26T05:58:30.133Z,74.60
2019-03-26T06:00:59.056Z,74.50
2019-03-26T06:03:27.507Z,74.50
2019-03-26T06:05:56.406Z,74.30
2019-03-26T06:08:24.857Z,74.50
2019-03-26T06:10:53.354Z,74.60
2019-03-26T06:13:21.796Z,74.60
2019-03-26T06:15:50.206Z,74.70
2019-03-26T06:18:18.652Z,74.40
2019-03-26T06:20:50.561Z,74.30
2019-03-26T06:23:18.986Z,74.10
2019-03-26T06:25:47.418Z,74.20
2019-03-26T06:28:15.839Z,74.10
2019-03-26T06:30:44.319Z,73.40
2019-03-26T06:33:12.766Z,72.70
2019-03-26T06:35:41.214Z,71.50
2019-03-26T06:38:09.911Z,70.90
2019-03-26T06:40:38.329Z,70.90
2019-03-26T06:43:06.746Z,70.20
2019-03-26T06:45:35.162Z,70.10
2019-03-26T06:48:04.370Z,69.90
2019-03-26T06:50:33.317Z,70.50
2019-03-26T06:53:01.845Z,69.70
2019-03-26T06:55:30.307Z,67.40
2019-03-26T06:57:58.738Z,66.50
2019-03-26T07:00:30.266Z,66.20
2019-03-26T07:03:00.444Z,65.20
2019-03-26T07:05:28.893Z,65.00
2019-03-26T07:07:57.378Z,64.50
2019-03-26T07:10:28.842Z,64.00
2019-03-26T07:12:58.043Z,63.30
2019-03-26T07:15:26.550Z,63.40
2019-03-26T07:17:55.242Z,63.20
2019-03-26T07:20:23.998Z,63.30
2019-03-26T07:22:52.484Z,62.80
2019-03-26T07:25:20.911Z,63.00
2019-03-26T07:27:49.334Z,63.20
2019-03-26T07:30:20.869Z,63.50
2019-03-26T07:32:49.379Z,63.50
2019-03-26T07:35:17.815Z,63.60
2019-03-26T07:37:46.270Z,64.20
2019-03-26T07:40:14.958Z,64.50
2019-03-26T07:42:43.374Z,65.00
2019-03-26T07:45:11.972Z,65.10
2019-03-26T07:47:40.459Z,65.60
2019-03-26T07:50:08.906Z,66.20
2019-03-26T07:52:37.344Z,66.30
2019-03-26T07:55:07.534Z,66.50
2019-03-26T07:57:36.533Z,66.40
2019-03-26T08:00:07.896Z,66.60
2019-03-26T08:02:36.425Z,66.50
2019-03-26T08:05:07.963Z,66.30
2019-03-26T08:07:37.020Z,66.60
2019-03-26T08:10:27.704Z,67.00
2019-03-26T08:12:56.145Z,66.80
2019-03-26T08:15:24.752Z,66.80
2019-03-26T08:17:53.224Z,67.30
2019-03-26T08:20:21.835Z,66.90
2019-03-26T08:22:50.297Z,66.00
2019-03-26T08:25:18.822Z,65.00
2019-03-26T08:27:47.244Z,63.60
2019-03-26T08:30:15.697Z,62.80
2019-03-26T08:32:44.146Z,61.30
2019-03-26T08:35:12.801Z,60.30
2019-03-26T08:37:41.227Z,60.60
2019-03-26T08:40:09.960Z,60.30
2019-03-26T08:42:38.435Z,60.00
2019-03-26T08:45:07.995Z,60.00
2019-03-26T08:47:36.438Z,59.40
2019-03-26T08:50:06.793Z,59.70
2019-03-26T08:52:35.340Z,59.20
2019-03-26T08:55:05.470Z,60.10
2019-03-26T08:57:33.913Z,61.30
2019-03-26T09:00:02.439Z,62.40
2019-03-26T09:02:30.874Z,62.30
2019-03-26T09:04:59.310Z,62.20
2019-03-26T09:07:27.731Z,61.30
2019-03-26T09:09:56.232Z,61.30
2019-03-26T09:12:24.682Z,62.00
2019-03-26T09:14:53.431Z,62.50
2019-03-26T09:17:21.882Z,62.50
2019-03-26T09:19:50.307Z,62.20
2019-03-26T09:22:18.734Z,62.30
2019-03-26T09:24:47.164Z,61.60
2019-03-26T09:27:15.606Z,60.90
2019-03-26T09:29:44.031Z,60.70
2019-03-26T09:32:12.493Z,60.60
2019-03-26T09:34:40.968Z,60.00
2019-03-26T09:37:09.467Z,59.30
2019-03-26T09:39:38.501Z,60.60
2019-03-26T09:42:06.985Z,61.50
2019-03-26T09:44:35.434Z,60.90
2019-03-26T09:47:15.662Z,61.40
2019-03-26T09:49:34.049Z,61.60
2019-03-26T09:52:02.504Z,61.80
2019-03-26T09:54:31.003Z,62.40
2019-03-26T09:56:59.434Z,62.10
2019-03-26T09:59:27.956Z,61.20
2019-03-26T10:01:56.386Z,60.80
2019-03-26T10:04:24.802Z,60.10
2019-03-26T10:06:53.404Z,60.40
2019-03-26T10:09:21.831Z,59.30
2019-03-26T10:11:50.467Z,58.70
2019-03-26T10:14:18.914Z,59.10
2019-03-26T10:16:47.370Z,59.90
2019-03-26T10:19:17.124Z,60.30
2019-03-26T10:21:48.143Z,60.70
2019-03-26T10:24:16.618Z,60.20
2019-03-26T10:26:45.076Z,60.00
2019-03-26T10:29:24.181Z,59.20
2019-03-26T10:31:43.984Z,58.80
2019-03-26T10:34:12.410Z,58.00
2019-03-26T10:36:41.689Z,58.10
2019-03-26T10:39:10.334Z,58.10
2019-03-26T10:41:38.762Z,58.00
2019-03-26T10:44:07.202Z,56.70
2019-03-26T10:46:35.637Z,57.40
2019-03-26T10:49:04.222Z,57.60
2019-03-26T10:51:32.683Z,57.20
2019-03-26T10:54:01.193Z,56.10
2019-03-26T10:56:32.507Z,56.80
2019-03-26T10:58:59.990Z,58.10
2019-03-26T11:01:28.404Z,57.50
2019-03-26T11:03:56.854Z,57.30
2019-03-26T11:06:25.269Z,58.20
2019-03-26T11:08:53.732Z,57.20
2019-03-26T11:11:22.141Z,56.60
2019-03-26T11:13:50.600Z,56.80
2019-03-26T11:16:19.246Z,57.70
2019-03-26T11:18:47.767Z,57.50
2019-03-26T11:21:16.190Z,56.50
2019-03-26T11:23:44.629Z,55.70
2019-03-26T11:26:13.060Z,56.70
2019-03-26T11:28:41.526Z,56.90
2019-03-26T11:31:10.015Z,57.50
2019-03-26T11:33:38.850Z,56.00
2019-03-26T11:36:07.354Z,55.30
2019-03-26T11:38:35.951Z,54.60
2019-03-26T11:41:04.432Z,53.40
2019-03-26T11:43:32.872Z,53.80
2019-03-26T11:46:01.400Z,54.10
2019-03-26T11:48:29.851Z,54.20
2019-03-26T11:50:58.269Z,53.10
2019-03-26T11:53:26.699Z,52.90
2019-03-26T11:55:55.204Z,52.20
2019-03-26T11:58:30.483Z,52.10
2019-03-26T12:00:53.882Z,51.60
2019-03-26T12:03:22.321Z,51.40
2019-03-26T12:05:50.770Z,51.00
2019-03-26T12:08:19.195Z,51.10
2019-03-26T12:10:48.390Z,50.40
2019-03-26T12:13:16.812Z,50.40
2019-03-26T12:15:45.235Z,51.00
2019-03-26T12:18:13.693Z,51.20
2019-03-26T12:20:42.127Z,51.70
2019-03-26T12:23:10.534Z,51.80
2019-03-26T12:25:38.966Z,49.80
2019-03-26T12:28:07.435Z,49.40
2019-03-26T12:30:37.949Z,50.00
2019-03-26T12:33:07.831Z,50.70
2019-03-26T12:35:36.649Z,50.40
2019-03-26T12:38:08.214Z,49.80
2019-03-26T12:40:36.666Z,49.10
2019-03-26T12:43:05.112Z,50.60
2019-03-26T12:45:33.653Z,50.90
2019-03-26T12:48:02.934Z,50.50
2019-03-26T12:50:32.325Z,50.20
2019-03-26T12:53:00.928Z,50.40
2019-03-26T12:55:29.338Z,49.60
2019-03-26T12:57:57.784Z,49.70
2019-03-26T13:00:29.309Z,49.10
2019-03-26T13:02:57.814Z,49.10
2019-03-26T13:05:26.274Z,50.20
2019-03-26T13:07:54.702Z,50.40
2019-03-26T13:10:23.146Z,50.00
2019-03-26T13:12:51.606Z,50.30
2019-03-26T13:15:20.046Z,51.00
2019-03-26T13:17:48.479Z,50.90
2019-03-26T13:20:16.916Z,51.60
2019-03-26T13:22:45.369Z,53.40
2019-03-26T13:25:13.971Z,52.80
2019-03-26T13:27:42.409Z,52.20
2019-03-26T13:30:12.400Z,51.70
2019-03-26T13:32:40.802Z,51.80
2019-03-26T13:35:09.631Z,51.50
2019-03-26T13:37:38.194Z,51.20
2019-03-26T13:40:07.573Z,50.90
2019-03-26T13:42:36.054Z,50.70
2019-03-26T13:45:06.134Z,50.10
2019-03-26T13:47:34.577Z,50.30
2019-03-26T13:50:04.052Z,51.00
2019-03-26T13:52:32.494Z,51.50
2019-03-26T13:55:00.962Z,52.70
2019-03-26T13:57:29.422Z,51.30
2019-03-26T13:59:58.346Z,51.80
2019-03-26T14:02:26.822Z,51.50
2019-03-26T14:04:58.296Z,51.70
2019-03-26T14:07:26.751Z,53.00
2019-03-26T14:09:55.259Z,54.00
2019-03-26T14:12:23.679Z,54.30
2019-03-26T14:14:53.643Z,54.20
2019-03-26T14:17:22.254Z,55.00
2019-03-26T14:19:50.699Z,55.20
2019-03-26T14:22:19.105Z,55.40
2019-03-26T14:24:47.555Z,55.90
2019-03-26T14:27:15.993Z,55.70
2019-03-26T14:29:44.447Z,55.60
2019-03-26T14:32:12.867Z,54.90
2019-03-26T14:34:41.310Z,55.50
2019-03-26T14:37:09.735Z,55.90
2019-03-26T14:39:38.166Z,55.80
2019-03-26T14:42:06.687Z,55.70
2019-03-26T14:44:35.130Z,55.80
2019-03-26T14:47:03.601Z,55.70
2019-03-26T14:49:32.019Z,56.00
2019-03-26T14:52:00.467Z,56.60
2019-03-26T14:54:28.905Z,56.40
2019-03-26T14:56:57.386Z,56.90
2019-03-26T14:59:25.827Z,57.80
2019-03-26T15:01:54.238Z,57.80
2019-03-26T15:04:22.708Z,57.80
2019-03-26T15:06:51.160Z,57.10
2019-03-26T15:09:19.656Z,57.70
2019-03-26T15:11:48.542Z,58.20
2019-03-26T15:14:16.990Z,58.50
2019-03-26T15:16:45.510Z,59.00
2019-03-26T15:19:13.954Z,58.60
2019-03-26T15:21:42.409Z,58.60
2019-03-26T15:24:10.829Z,58.30
2019-03-26T15:26:39.248Z,58.20
2019-03-26T15:29:07.875Z,58.50
2019-03-26T15:31:36.330Z,58.00
2019-03-26T15:34:04.797Z,58.20
2019-03-26T15:36:33.255Z,58.30
2019-03-26T15:39:01.684Z,58.40
2019-03-26T15:41:30.540Z,58.10
2019-03-26T15:43:59.047Z,58.80
2019-03-26T15:46:27.495Z,59.40
2019-03-26T15:48:55.955Z,59.70
2019-03-26T15:51:24.603Z,60.00
2019-03-26T15:53:53.019Z,60.00
2019-03-26T15:56:21.464Z,60.20
2019-03-26T15:58:49.878Z,60.00
2019-03-26T16:01:18.344Z,60.50
2019-03-26T16:03:46.826Z,60.40
2019-03-26T16:06:15.283Z,60.10
2019-03-26T16:08:43.744Z,60.30
2019-03-26T16:11:12.219Z,60.40
2019-03-26T16:13:41.320Z,59.70
2019-03-26T16:16:09.780Z,59.50
2019-03-26T16:18:38.293Z,59.70
2019-03-26T16:21:06.722Z,60.10
2019-03-26T16:23:35.174Z,60.20
2019-03-26T16:26:03.654Z,60.30
2019-03-26T16:28:32.082Z,59.60
2019-03-26T16:31:00.498Z,59.80
2019-03-26T16:33:28.989Z,60.30
2019-03-26T16:35:57.502Z,60.80
2019-03-26T16:38:25.933Z,61.20
2019-03-26T16:40:55.930Z,61.40
2019-03-26T16:43:24.397Z,62.40
2019-03-26T16:45:52.848Z,62.50
2019-03-26T16:48:21.304Z,62.80
2019-03-26T16:50:49.972Z,63.10
2019-03-26T16:53:18.396Z,63.40
2019-03-26T16:55:46.835Z,63.40
2019-03-26T16:58:15.262Z,63.70
2019-03-26T17:00:43.686Z,63.60
2019-03-26T17:03:12.130Z,63.40
2019-03-26T17:05:40.562Z,63.80
2019-03-26T17:08:09.078Z,64.60
2019-03-26T17:10:37.566Z,65.30
2019-03-26T17:13:05.991Z,66.00
2019-03-26T17:15:35.986Z,66.30
2019-03-26T17:18:04.407Z,66.50
2019-03-26T17:20:32.918Z,67.00
2019-03-26T17:23:01.375Z,67.10
2019-03-26T17:25:29.810Z,67.30
2019-03-26T17:27:58.261Z,67.60
2019-03-26T17:30:26.705Z,67.90
2019-03-26T17:32:55.222Z,67.90
2019-03-26T17:35:23.694Z,68.20
2019-03-26T17:37:59.698Z,68.70
2019-03-26T17:40:22.434Z,69.30
2019-03-26T17:42:50.906Z,69.60
2019-03-26T17:45:19.372Z,69.80
2019-03-26T17:47:47.826Z,70.10
2019-03-26T17:50:16.472Z,70.70
2019-03-26T17:52:44.910Z,70.80
2019-03-26T17:55:13.698Z,70.90
2019-03-26T17:57:42.150Z,71.00
2019-03-26T18:00:14.210Z,71.40
2019-03-26T18:02:42.703Z,71.60
2019-03-26T18:05:14.226Z,71.60
2019-03-26T18:07:42.647Z,71.80
2019-03-26T18:10:11.142Z,72.00
2019-03-26T18:12:39.597Z,72.00
2019-03-26T18:15:08.167Z,72.30
2019-03-26T18:17:36.610Z,72.50
2019-03-26T18:20:06.109Z,72.70
2019-03-26T18:22:34.538Z,73.00
2019-03-26T18:25:03.429Z,73.20
2019-03-26T18:27:31.866Z,73.60
2019-03-26T18:30:00.878Z,73.50
2019-03-26T18:32:29.315Z,73.60
2019-03-26T18:34:57.914Z,73.50
2019-03-26T18:37:26.365Z,73.60
2019-03-26T18:39:54.871Z,73.30
2019-03-26T18:42:23.292Z,73.30
2019-03-26T18:44:51.741Z,73.30
2019-03-26T18:47:20.310Z,73.40
2019-03-26T18:49:48.731Z,73.50
2019-03-26T18:52:17.320Z,73.60
2019-03-26T18:54:45.730Z,73.30
2019-03-26T18:57:14.200Z,74.00
2019-03-26T18:59:42.669Z,73.30
2019-03-26T19:02:11.151Z,73.60
2019-03-26T19:04:39.590Z,73.50
2019-03-26T19:07:08.022Z,73.60
2019-03-26T19:09:36.509Z,73.40
2019-03-26T19:12:04.968Z,73.40
2019-03-26T19:14:33.385Z,73.60
2019-03-26T19:17:01.829Z,73.30
2019-03-26T19:19:30.275Z,73.20
2019-03-26T19:21:58.709Z,73.40
2019-03-26T19:24:27.130Z,73.50
2019-03-26T19:26:56.086Z,73.70
2019-03-26T19:29:24.522Z,74.10
2019-03-26T19:31:52.950Z,74.40
2019-03-26T19:34:21.374Z,74.70
2019-03-26T19:36:49.790Z,74.90
2019-03-26T19:39:18.251Z,74.80
2019-03-26T19:41:46.750Z,75.00
2019-03-26T19:44:15.199Z,74.80
2019-03-26T19:46:43.674Z,74.80
2019-03-26T19:49:12.117Z,74.90
2019-03-26T19:51:40.574Z,75.00
2019-03-26T19:54:09.014Z,74.60
2019-03-26T19:56:37.431Z,74.70
2019-03-26T19:59:05.875Z,74.70
2019-03-26T20:01:34.314Z,74.70
2019-03-26T20:04:02.764Z,74.60
2019-03-26T20:06:31.175Z,75.40
2019-03-26T20:08:59.621Z,74.50
2019-03-26T20:11:28.064Z,74.40
2019-03-26T20:13:56.606Z,74.60
2019-03-26T20:16:27.303Z,75.00
2019-03-26T20:21:36.706Z,75.10
2019-03-26T20:24:05.162Z,74.90
2019-03-26T20:26:33.638Z,74.90
2019-03-26T20:29:02.107Z,75.10
2019-03-26T20:31:30.526Z,75.10
2019-03-26T20:33:58.954Z,75.00
2019-03-26T20:36:27.395Z,75.00
2019-03-26T20:38:55.828Z,74.90
2019-03-26T20:41:24.271Z,74.60
2019-03-26T20:43:52.978Z,74.50
2019-03-26T20:46:21.490Z,75.00
2019-03-26T20:48:49.923Z,74.70
2019-03-26T20:51:18.358Z,74.70
2019-03-26T20:53:46.807Z,74.80
2019-03-26T20:56:15.238Z,74.90
2019-03-26T20:58:44.306Z,75.10
2019-03-26T21:01:12.760Z,75.10
2019-03-26T21:03:41.209Z,75.00
2019-03-26T21:06:09.652Z,75.30
2019-03-26T21:08:38.078Z,75.30
2019-03-26T21:11:06.512Z,75.30
2019-03-26T21:13:35.018Z,75.20
2019-03-26T21:16:03.439Z,75.00
2019-03-26T21:18:31.883Z,75.20
2019-03-26T21:21:00.320Z,75.10
2019-03-26T21:26:25.446Z,75.10
2019-03-26T21:28:53.870Z,74.90
2019-03-26T21:31:22.363Z,75.10
2019-03-26T21:33:50.818Z,75.00
2019-03-26T21:36:19.259Z,75.20
2019-03-26T21:38:47.735Z,75.30
2019-03-26T21:41:16.159Z,75.50
2019-03-26T21:43:44.642Z,75.70
2019-03-26T21:46:13.069Z,75.70
2019-03-26T21:48:41.481Z,75.80
2019-03-26T21:51:31.168Z,75.90
2019-03-26T21:53:59.678Z,75.90
2019-03-26T21:56:28.094Z,75.90
2019-03-26T21:58:56.547Z,76.20
2019-03-26T22:01:24.966Z,75.80
2019-03-26T22:03:53.389Z,75.30
2019-03-26T22:06:21.823Z,75.40
2019-03-26T22:08:50.253Z,75.60
2019-03-26T22:11:18.674Z,75.40
2019-03-26T22:13:47.591Z,75.30
2019-03-26T22:16:17.827Z,75.10
2019-03-26T22:18:46.339Z,75.00
2019-03-26T22:21:14.755Z,75.00
2019-03-26T22:23:43.226Z,74.90
2019-03-26T22:26:11.686Z,75.00
2019-03-26T22:28:40.126Z,74.80
2019-03-26T22:31:08.535Z,74.90
2019-03-26T22:33:37.012Z,74.90
2019-03-26T22:36:05.452Z,75.00
2019-03-26T22:38:33.909Z,75.10
2019-03-26T22:41:02.395Z,75.00
2019-03-26T22:43:30.870Z,75.00
2019-03-26T22:45:59.479Z,75.00
2019-03-26T22:48:27.922Z,75.10
2019-03-26T22:53:27.892Z,75.20
2019-03-26T22:55:56.901Z,75.20
2019-03-26T22:58:25.339Z,75.10
2019-03-26T23:00:58.181Z,75.10
2019-03-26T23:03:26.638Z,75.10
2019-03-26T23:05:55.303Z,75.20
2019-03-26T23:08:23.746Z,74.90
2019-03-26T23:10:55.993Z,74.70
2019-03-26T23:13:24.412Z,75.10
2019-03-26T23:15:52.927Z,75.20
2019-03-26T23:18:21.386Z,75.20
2019-03-26T23:20:58.939Z,75.40
2019-03-26T23:23:27.411Z,75.40
2019-03-26T23:25:55.850Z,75.50
2019-03-26T23:28:24.274Z,75.30
2019-03-26T23:30:56.243Z,75.10
2019-03-26T23:33:24.687Z,75.00
2019-03-26T23:35:53.123Z,74.80
2019-03-26T23:38:21.557Z,74.80
2019-03-26T23:40:50.084Z,74.90
2019-03-26T23:43:18.603Z,74.80
2019-03-26T23:45:47.042Z,75.20
2019-03-26T23:48:15.488Z,75.30
2019-03-26T23:50:45.534Z,75.40
2019-03-26T23:53:13.976Z,75.50
2019-03-26T23:55:42.387Z,75.90
2019-03-26T23:58:10.843Z,76.30
